Greater Peoria Regional Airport Peoria US
ICAO: KPIA
IATA: PIA
Category: Large
Scheduled Services: Yes

Elevation: 660 ft
TransAlt. 18000 ft.

Airport Communications:
PEORIA APP/DEP:124.675
ASOS:126.1
ATIS:126.1
GND:121.85
ARNG OPS:32.3
ANG OPS:141.55
KANKAKEE RDO:122.35
PEORIA TWR:119.1
UNICOM:122.95

KPIA Zoom In..

If you have problems with the map follow the link
https://www.worldairports.se/pages/airport.php?
ICAO=KPIA

Runways:

(A) RW 04 length 8004 ft width 150 ft
ILS 110.55 / hdg 38

(B) RW 13 length 10104 ft width 150 ft
ILS 109.90 / hdg 126

(C) RW 22 length 8004 ft width 150 ft
---- / hdg 218

(D) RW 31 length 10104 ft width 150 ft
ILS 109.90 / hdg 306

Location; KPIA
Day. 20 / Time. 21.21 Zulu
* Altimeter: 29.75
* Temperature: 03° c. 37.4°f.
* Wind from: 240° Speed 10 kn.
Dewpoint: 01° c.
Visibility: 10 Statute Miles.
Clouds: Overcast 1000 ft.

KPIA 202121Z 24010KT 10SM OVC010 03/01 A2975 RMK AO2 CIG 009V014 T00280011 $


Wind From 240°
Speed 10 kn.

 
 
jpsmedia.com for Web Design worldairports.se 2019   terms of use